createdAt,value
2018-02-14T00:01:10.934Z,2.04
2018-02-14T00:03:39.342Z,1.74
2018-02-14T00:06:07.786Z,2.09
2018-02-14T00:08:36.273Z,2.47
2018-02-14T00:11:04.681Z,1.89
2018-02-14T00:13:33.073Z,1.88
2018-02-14T00:16:01.482Z,1.61
2018-02-14T00:18:29.874Z,2.14
2018-02-14T00:20:58.298Z,1.88
2018-02-14T00:23:26.726Z,2.15
2018-02-14T00:25:55.132Z,2.59
2018-02-14T00:28:23.538Z,2.13
2018-02-14T00:30:51.943Z,2.08
2018-02-14T00:33:20.359Z,2.09
2018-02-14T00:35:48.827Z,2.01
2018-02-14T00:38:17.216Z,2.25
2018-02-14T00:40:45.789Z,2.07
2018-02-14T00:43:14.169Z,1.69
2018-02-14T00:45:42.556Z,1.95
2018-02-14T00:48:11.115Z,2.31
2018-02-14T00:50:39.544Z,2.30
2018-02-14T00:53:08.121Z,2.33
2018-02-14T00:55:36.523Z,1.81
2018-02-14T00:58:05.153Z,2.37
2018-02-14T01:00:33.674Z,2.11
2018-02-14T01:03:02.078Z,1.48
2018-02-14T01:05:30.720Z,2.16
2018-02-14T01:07:59.143Z,2.45
2018-02-14T01:10:27.520Z,2.76
2018-02-14T01:12:55.964Z,1.72
2018-02-14T01:15:24.347Z,2.77
2018-02-14T01:17:52.767Z,2.49
2018-02-14T01:20:27.385Z,0.69
2018-02-14T01:22:55.920Z,1.77
2018-02-14T01:25:24.332Z,2.32
2018-02-14T01:27:52.731Z,1.52
2018-02-14T01:30:21.134Z,1.53
2018-02-14T01:32:49.535Z,2.17
2018-02-14T01:35:18.000Z,1.71
2018-02-14T01:37:46.410Z,2.32
2018-02-14T01:40:14.818Z,1.57
2018-02-14T01:42:43.215Z,1.37
2018-02-14T01:45:11.603Z,1.86
2018-02-14T01:47:40.051Z,1.10
2018-02-14T01:50:08.458Z,1.60
2018-02-14T01:52:36.858Z,1.96
2018-02-14T01:55:05.569Z,1.15
2018-02-14T01:57:33.968Z,1.76
2018-02-14T02:00:02.514Z,2.08
2018-02-14T02:02:30.924Z,1.91
2018-02-14T02:04:59.391Z,2.24
2018-02-14T02:07:27.779Z,2.04
2018-02-14T02:09:56.163Z,1.88
2018-02-14T02:12:24.633Z,1.63
2018-02-14T02:14:53.126Z,1.81
2018-02-14T02:17:21.508Z,2.88
2018-02-14T02:19:49.928Z,2.41
2018-02-14T02:22:18.283Z,2.73
2018-02-14T02:24:46.705Z,2.84
2018-02-14T02:27:15.093Z,2.74
2018-02-14T02:29:43.482Z,2.58
2018-02-14T02:32:11.878Z,2.39
2018-02-14T02:34:40.316Z,1.72
2018-02-14T02:37:08.892Z,1.90
2018-02-14T02:39:49.020Z,2.28
2018-02-14T02:42:17.462Z,2.26
2018-02-14T02:44:45.854Z,1.59
2018-02-14T02:47:14.251Z,1.37
2018-02-14T02:49:42.644Z,0.77
2018-02-14T02:52:11.044Z,0.98
2018-02-14T02:54:39.454Z,0.94
2018-02-14T02:57:07.936Z,1.32
2018-02-14T02:59:36.335Z,0.77
2018-02-14T03:02:04.815Z,1.48
2018-02-14T03:04:33.200Z,1.19
2018-02-14T03:07:01.617Z,2.23
2018-02-14T03:09:30.008Z,2.00
2018-02-14T03:11:58.447Z,1.95
2018-02-14T03:14:26.834Z,2.19
2018-02-14T03:16:55.216Z,2.36
2018-02-14T03:19:23.616Z,1.69
2018-02-14T03:21:52.089Z,1.26
2018-02-14T03:24:20.576Z,1.68
2018-02-14T03:26:49.041Z,2.16
2018-02-14T03:29:17.408Z,2.02
2018-02-14T03:31:45.802Z,2.28
2018-02-14T03:34:14.208Z,1.63
2018-02-14T03:36:42.671Z,1.74
2018-02-14T03:39:11.043Z,2.26
2018-02-14T03:41:39.526Z,1.77
2018-02-14T03:44:07.916Z,2.05
2018-02-14T03:46:36.316Z,2.46
2018-02-14T03:49:04.717Z,1.75
2018-02-14T03:51:33.111Z,1.82
2018-02-14T03:54:01.591Z,2.06
2018-02-14T03:56:29.981Z,2.14
2018-02-14T03:58:58.386Z,2.44
2018-02-14T04:01:26.861Z,1.97
2018-02-14T04:03:55.251Z,1.68
2018-02-14T04:06:23.655Z,1.85
2018-02-14T04:08:52.056Z,2.66
2018-02-14T04:11:20.534Z,2.84
2018-02-14T04:13:49.008Z,2.57
2018-02-14T04:16:17.369Z,1.79
2018-02-14T04:18:45.754Z,2.52
2018-02-14T04:21:14.152Z,2.07
2018-02-14T04:23:42.522Z,2.61
2018-02-14T04:26:11.041Z,2.28
2018-02-14T04:28:40.154Z,2.27
2018-02-14T04:31:08.560Z,2.71
2018-02-14T04:33:37.046Z,2.36
2018-02-14T04:36:05.431Z,2.97
2018-02-14T04:38:34.075Z,2.38
2018-02-14T04:41:02.481Z,2.77
2018-02-14T04:43:30.930Z,2.70
2018-02-14T04:45:59.334Z,1.87
2018-02-14T04:48:27.856Z,2.05
2018-02-14T04:50:56.365Z,2.05
2018-02-14T04:53:24.766Z,2.36
2018-02-14T04:55:53.228Z,2.98
2018-02-14T04:58:21.629Z,2.00
2018-02-14T05:00:50.117Z,2.17
2018-02-14T05:03:18.513Z,2.57
2018-02-14T05:05:46.906Z,2.40
2018-02-14T05:08:15.379Z,2.77
2018-02-14T05:10:43.856Z,1.72
2018-02-14T05:13:12.263Z,2.02
2018-02-14T05:15:40.651Z,1.65
2018-02-14T05:18:09.047Z,2.07
2018-02-14T05:20:37.481Z,3.09
2018-02-14T05:23:05.885Z,3.23
2018-02-14T05:25:34.288Z,2.54
2018-02-14T05:28:02.677Z,2.70
2018-02-14T05:30:31.062Z,2.71
2018-02-14T05:32:59.514Z,2.34
2018-02-14T05:35:27.913Z,1.22
2018-02-14T05:37:56.405Z,2.25
2018-02-14T05:40:24.798Z,2.21
2018-02-14T05:42:53.289Z,2.20
2018-02-14T05:45:21.727Z,2.53
2018-02-14T05:47:50.109Z,1.90
2018-02-14T05:50:18.603Z,2.40
2018-02-14T05:52:46.998Z,2.96
2018-02-14T05:55:15.406Z,1.87
2018-02-14T05:57:43.807Z,2.81
2018-02-14T06:00:12.213Z,2.77
2018-02-14T06:02:40.705Z,2.56
2018-02-14T06:05:09.120Z,1.25
2018-02-14T06:07:37.523Z,1.47
2018-02-14T06:10:05.990Z,1.56
2018-02-14T06:12:34.401Z,2.03
2018-02-14T06:15:03.092Z,2.15
2018-02-14T06:17:31.491Z,1.49
2018-02-14T06:19:59.974Z,2.62
2018-02-14T06:22:28.377Z,2.24
2018-02-14T06:24:56.782Z,2.32
2018-02-14T06:27:25.265Z,2.58
2018-02-14T06:29:53.663Z,1.69
2018-02-14T06:32:22.079Z,2.23
2018-02-14T06:34:50.459Z,1.79
2018-02-14T06:37:18.906Z,1.66
2018-02-14T06:39:47.348Z,2.57
2018-02-14T06:42:15.759Z,2.18
2018-02-14T06:44:44.239Z,1.64
2018-02-14T06:47:12.660Z,2.03
2018-02-14T06:49:41.070Z,2.18
2018-02-14T06:52:09.545Z,1.84
2018-02-14T06:54:37.922Z,0.99
2018-02-14T06:57:06.422Z,2.49
2018-02-14T06:59:34.892Z,1.96
2018-02-14T07:02:03.450Z,1.83
2018-02-14T07:04:32.011Z,2.18
2018-02-14T07:07:00.505Z,2.57
2018-02-14T07:09:28.907Z,3.07
2018-02-14T07:11:57.305Z,2.06
2018-02-14T07:14:25.718Z,1.42
2018-02-14T07:16:54.246Z,3.00
2018-02-14T07:19:22.656Z,2.19
2018-02-14T07:21:51.066Z,2.53
2018-02-14T07:24:19.450Z,2.17
2018-02-14T07:26:47.847Z,2.08
2018-02-14T07:29:16.608Z,2.79
2018-02-14T07:31:45.051Z,2.69
2018-02-14T07:34:13.458Z,3.42
2018-02-14T07:36:41.856Z,2.87
2018-02-14T07:39:10.254Z,1.95
2018-02-14T07:41:38.728Z,2.84
2018-02-14T07:44:07.129Z,2.35
2018-02-14T07:46:35.558Z,2.19
2018-02-14T07:49:03.990Z,2.38
2018-02-14T07:51:32.800Z,2.86
2018-02-14T07:54:01.583Z,2.01
2018-02-14T07:56:29.998Z,2.96
2018-02-14T07:58:58.401Z,3.54
2018-02-14T08:01:26.793Z,4.39
2018-02-14T08:03:55.199Z,4.52
2018-02-14T08:06:23.680Z,4.72
2018-02-14T08:08:52.066Z,5.27
2018-02-14T08:11:20.467Z,5.73
2018-02-14T08:13:48.967Z,4.87
2018-02-14T08:16:17.366Z,5.08
2018-02-14T08:18:45.842Z,4.79
2018-02-14T08:21:14.333Z,4.49
2018-02-14T08:23:42.738Z,5.71
2018-02-14T08:26:11.155Z,5.73
2018-02-14T08:28:39.666Z,5.42
2018-02-14T08:33:42.704Z,5.49
2018-02-14T08:36:11.214Z,5.68
2018-02-14T08:38:39.633Z,5.91
2018-02-14T08:41:08.051Z,6.91
2018-02-14T08:43:36.466Z,6.31
2018-02-14T08:46:04.871Z,6.46
2018-02-14T08:48:33.267Z,5.86
2018-02-14T08:51:01.688Z,6.78
2018-02-14T08:53:30.176Z,6.51
2018-02-14T08:55:58.682Z,6.83
2018-02-14T08:58:27.088Z,6.62
2018-02-14T09:00:55.484Z,6.34
2018-02-14T09:03:23.892Z,8.18
2018-02-14T09:05:52.410Z,9.46
2018-02-14T09:08:20.835Z,10.81
2018-02-14T09:10:49.233Z,10.45
2018-02-14T09:13:17.629Z,10.38
2018-02-14T09:15:46.047Z,10.04
2018-02-14T09:18:14.528Z,10.16
2018-02-14T09:20:43.005Z,9.99
2018-02-14T09:23:11.415Z,9.22
2018-02-14T09:25:39.833Z,9.52
2018-02-14T09:28:08.230Z,9.43
2018-02-14T09:30:36.685Z,9.02
2018-02-14T09:33:05.211Z,10.07
2018-02-14T09:35:33.968Z,9.26
2018-02-14T09:38:02.663Z,8.82
2018-02-14T09:40:31.060Z,9.19
2018-02-14T09:42:59.602Z,9.50
2018-02-14T09:45:28.004Z,8.41
2018-02-14T09:47:56.427Z,7.28
2018-02-14T09:50:24.809Z,6.98
2018-02-14T09:52:53.421Z,6.17
2018-02-14T09:55:21.902Z,7.43
2018-02-14T09:57:50.412Z,8.75
2018-02-14T10:00:19.080Z,8.81
2018-02-14T10:02:47.482Z,8.09
2018-02-14T10:05:15.867Z,9.51
2018-02-14T10:07:44.335Z,9.58
2018-02-14T10:10:12.737Z,8.73
2018-02-14T10:12:41.126Z,9.33
2018-02-14T10:15:09.568Z,9.07
2018-02-14T10:17:37.954Z,8.94
2018-02-14T10:20:06.445Z,9.22
2018-02-14T10:22:34.883Z,8.92
2018-02-14T10:25:03.282Z,8.89
2018-02-14T10:27:31.741Z,8.23
2018-02-14T10:30:00.142Z,8.60
2018-02-14T10:32:28.924Z,10.16
2018-02-14T10:34:57.357Z,9.18
2018-02-14T10:37:25.755Z,9.61
2018-02-14T10:39:54.245Z,9.24
2018-02-14T10:42:22.732Z,10.10
2018-02-14T10:44:51.217Z,11.38
2018-02-14T10:47:19.622Z,9.55
2018-02-14T10:49:48.028Z,9.97
2018-02-14T10:52:16.429Z,9.51
2018-02-14T10:54:44.813Z,10.39
2018-02-14T10:57:13.359Z,10.48
2018-02-14T10:59:41.837Z,9.99
2018-02-14T11:02:10.665Z,8.46
2018-02-14T11:04:44.595Z,8.53
2018-02-14T11:07:18.949Z,7.74
2018-02-14T11:09:47.429Z,6.94
2018-02-14T11:12:16.094Z,7.00
2018-02-14T11:14:44.575Z,6.09
2018-02-14T11:17:12.961Z,5.57
2018-02-14T11:19:41.355Z,5.47
2018-02-14T11:22:09.755Z,5.02
2018-02-14T11:24:38.186Z,5.42
2018-02-14T11:27:06.716Z,5.42
2018-02-14T11:29:35.109Z,5.16
2018-02-14T11:32:03.514Z,5.49
2018-02-14T11:34:31.932Z,5.29
2018-02-14T11:37:00.329Z,4.97
2018-02-14T11:39:28.807Z,5.29
2018-02-14T11:41:57.197Z,4.29
2018-02-14T11:44:25.606Z,4.96
2018-02-14T11:46:54.027Z,5.32
2018-02-14T11:49:22.450Z,5.59
2018-02-14T11:51:50.849Z,4.80
2018-02-14T11:54:19.250Z,4.72
2018-02-14T11:56:47.720Z,5.44
2018-02-14T11:59:16.227Z,5.92
2018-02-14T12:01:44.609Z,5.53
2018-02-14T12:04:12.989Z,5.44
2018-02-14T12:06:41.480Z,6.91
2018-02-14T12:09:09.953Z,8.68
2018-02-14T12:11:38.338Z,9.04
2018-02-14T12:14:06.761Z,9.17
2018-02-14T12:16:35.161Z,10.07
2018-02-14T12:19:03.581Z,10.16
2018-02-14T12:21:32.028Z,10.45
2018-02-14T12:24:00.431Z,11.23
2018-02-14T12:26:28.838Z,12.02
2018-02-14T12:28:57.238Z,12.77
2018-02-14T12:31:25.630Z,11.74
2018-02-14T12:33:54.069Z,11.80
2018-02-14T12:36:22.461Z,12.16
2018-02-14T12:38:50.999Z,10.91
2018-02-14T12:41:19.467Z,10.21
2018-02-14T12:43:47.978Z,10.29
2018-02-14T12:46:16.445Z,10.26
2018-02-14T12:48:44.832Z,10.82
2018-02-14T12:51:13.323Z,11.65
2018-02-14T12:53:41.739Z,10.71
2018-02-14T12:56:10.147Z,9.26
2018-02-14T12:58:38.690Z,11.37
2018-02-14T13:01:07.105Z,11.51
2018-02-14T13:03:35.515Z,10.61
2018-02-14T13:06:03.920Z,10.83
2018-02-14T13:08:32.321Z,12.61
2018-02-14T13:11:00.858Z,12.88
2018-02-14T13:13:29.327Z,12.22
2018-02-14T13:15:57.706Z,10.66
2018-02-14T13:18:26.147Z,12.24
2018-02-14T13:20:54.567Z,11.12
2018-02-14T13:23:23.341Z,10.29
2018-02-14T13:25:51.731Z,10.48
2018-02-14T13:28:20.152Z,10.14
2018-02-14T13:30:48.570Z,9.19
2018-02-14T13:33:16.968Z,8.18
2018-02-14T13:35:45.713Z,8.43
2018-02-14T13:38:14.125Z,7.21
2018-02-14T13:40:42.530Z,7.36
2018-02-14T13:43:10.944Z,7.00
2018-02-14T13:45:39.369Z,6.62
2018-02-14T13:48:07.861Z,7.49
2018-02-14T13:50:36.262Z,7.24
2018-02-14T13:53:04.801Z,7.08
2018-02-14T13:55:33.385Z,7.16
2018-02-14T13:58:01.805Z,7.05
2018-02-14T14:00:30.346Z,6.13
2018-02-14T14:02:58.897Z,6.59
2018-02-14T14:05:27.311Z,6.41
2018-02-14T14:07:56.704Z,7.03
2018-02-14T14:10:25.102Z,6.86
2018-02-14T14:12:53.613Z,6.19
2018-02-14T14:15:22.096Z,6.83
2018-02-14T14:17:50.478Z,6.85
2018-02-14T14:20:19.047Z,6.89
2018-02-14T14:22:47.494Z,6.10
2018-02-14T14:25:15.888Z,6.01
2018-02-14T14:27:44.292Z,6.12
2018-02-14T14:30:12.682Z,5.89
2018-02-14T14:32:41.249Z,6.33
2018-02-14T14:35:09.745Z,6.67
2018-02-14T14:37:38.177Z,6.73
2018-02-14T14:40:06.606Z,6.44
2018-02-14T14:42:35.035Z,6.58
2018-02-14T14:45:03.428Z,6.60
2018-02-14T14:47:31.994Z,6.51
2018-02-14T14:50:00.527Z,6.41
2018-02-14T14:52:28.999Z,6.33
2018-02-14T14:54:57.435Z,6.69
2018-02-14T14:57:25.924Z,6.76
2018-02-14T14:59:54.306Z,6.91
2018-02-14T15:02:22.689Z,6.59
2018-02-14T15:04:51.176Z,6.36
2018-02-14T15:07:19.576Z,6.68
2018-02-14T15:09:48.076Z,6.77
2018-02-14T15:12:16.485Z,6.86
2018-02-14T15:14:44.962Z,7.60
2018-02-14T15:17:13.366Z,7.04
2018-02-14T15:19:41.759Z,6.90
2018-02-14T15:22:10.160Z,7.53
2018-02-14T15:24:38.596Z,6.90
2018-02-14T15:27:07.089Z,6.87
2018-02-14T15:29:35.485Z,6.74
2018-02-14T15:32:03.886Z,6.76
2018-02-14T15:34:32.294Z,6.90
2018-02-14T15:37:00.705Z,6.01
2018-02-14T15:39:29.116Z,6.19
2018-02-14T15:41:57.545Z,6.28
2018-02-14T15:44:26.009Z,5.17
2018-02-14T15:46:54.436Z,6.37
2018-02-14T15:49:22.961Z,5.12
2018-02-14T15:51:51.433Z,5.75
2018-02-14T15:54:19.941Z,5.99
2018-02-14T15:56:48.456Z,5.09
2018-02-14T15:59:16.981Z,5.00
2018-02-14T16:01:45.391Z,5.73
2018-02-14T16:04:13.778Z,4.80
2018-02-14T16:06:42.197Z,4.93
2018-02-14T16:09:10.624Z,5.91
2018-02-14T16:11:39.120Z,5.46
2018-02-14T16:14:07.629Z,5.10
2018-02-14T16:16:36.040Z,5.22
2018-02-14T16:19:04.586Z,4.63
2018-02-14T16:21:33.063Z,4.72
2018-02-14T16:24:01.551Z,4.50
2018-02-14T16:26:29.997Z,4.68
2018-02-14T16:28:58.399Z,5.60
2018-02-14T16:31:27.192Z,5.59
2018-02-14T16:33:55.620Z,5.14
2018-02-14T16:36:24.041Z,5.81
2018-02-14T16:38:52.523Z,5.27
2018-02-14T16:41:21.165Z,5.09
2018-02-14T16:43:49.779Z,4.74
2018-02-14T16:46:18.190Z,5.06
2018-02-14T16:48:46.611Z,5.27
2018-02-14T16:51:15.014Z,4.74
2018-02-14T16:53:43.502Z,5.09
2018-02-14T16:56:11.953Z,5.34
2018-02-14T16:58:40.430Z,5.79
2018-02-14T17:01:08.912Z,5.03
2018-02-14T17:03:37.302Z,4.98
2018-02-14T17:06:05.737Z,5.04
2018-02-14T17:08:34.205Z,5.29
2018-02-14T17:11:02.607Z,5.49
2018-02-14T17:13:31.059Z,5.31
2018-02-14T17:15:59.588Z,5.81
2018-02-14T17:18:27.992Z,4.61
2018-02-14T17:20:56.453Z,3.33
2018-02-14T17:23:24.835Z,4.35
2018-02-14T17:25:53.310Z,4.42
2018-02-14T17:28:21.714Z,4.38
2018-02-14T17:30:50.124Z,3.88
2018-02-14T17:33:18.535Z,3.92
2018-02-14T17:35:46.924Z,4.09
2018-02-14T17:38:15.386Z,4.33
2018-02-14T17:40:43.807Z,4.12
2018-02-14T17:43:12.210Z,5.18
2018-02-14T17:45:40.607Z,3.87
2018-02-14T17:48:09.044Z,4.37
2018-02-14T17:50:37.444Z,3.86
2018-02-14T17:53:05.847Z,3.87
2018-02-14T17:55:34.249Z,3.66
2018-02-14T17:58:02.664Z,3.56
2018-02-14T18:00:31.078Z,3.59
2018-02-14T18:03:00.445Z,4.02
2018-02-14T18:05:29.006Z,4.21
2018-02-14T18:07:57.503Z,3.37
2018-02-14T18:10:25.925Z,3.51
2018-02-14T18:12:54.309Z,3.90
2018-02-14T18:15:22.731Z,3.98
2018-02-14T18:17:51.229Z,3.60
2018-02-14T18:20:19.626Z,3.99
2018-02-14T18:22:48.311Z,4.85
2018-02-14T18:25:16.718Z,3.79
2018-02-14T18:27:45.248Z,3.47
2018-02-14T18:30:13.716Z,3.61
2018-02-14T18:32:42.135Z,4.02
2018-02-14T18:35:10.544Z,3.48
2018-02-14T18:37:38.934Z,3.98
2018-02-14T18:40:07.346Z,3.73
2018-02-14T18:42:36.645Z,4.29
2018-02-14T18:45:05.233Z,3.31
2018-02-14T18:47:33.630Z,3.76
2018-02-14T18:50:02.382Z,4.51
2018-02-14T18:52:30.797Z,3.95
2018-02-14T18:54:59.232Z,3.36
2018-02-14T18:57:27.633Z,3.73
2018-02-14T18:59:56.162Z,3.78
2018-02-14T19:02:24.698Z,3.73
2018-02-14T19:04:53.102Z,4.10
2018-02-14T19:07:21.505Z,3.39
2018-02-14T19:09:49.933Z,4.40
2018-02-14T19:12:18.333Z,3.51
2018-02-14T19:14:46.943Z,3.25
2018-02-14T19:17:15.393Z,4.37
2018-02-14T19:19:43.884Z,3.73
2018-02-14T19:22:12.349Z,3.40
2018-02-14T19:24:40.907Z,3.41
2018-02-14T19:27:09.953Z,3.47
2018-02-14T19:29:38.386Z,3.08
2018-02-14T19:32:06.906Z,3.25
2018-02-14T19:34:35.300Z,3.42
2018-02-14T19:37:03.682Z,4.19
2018-02-14T19:39:32.151Z,3.03
2018-02-14T19:42:00.564Z,3.43
2018-02-14T19:44:29.045Z,3.69
2018-02-14T19:46:57.443Z,3.05
2018-02-14T19:49:25.915Z,2.85
2018-02-14T19:51:54.320Z,2.87
2018-02-14T19:54:22.818Z,3.15
2018-02-14T19:56:51.646Z,3.26
2018-02-14T19:59:20.137Z,3.26
2018-02-14T20:01:48.613Z,3.37
2018-02-14T20:04:17.086Z,3.15
2018-02-14T20:06:45.492Z,2.26
2018-02-14T20:09:14.053Z,2.56
2018-02-14T20:11:42.474Z,3.07
2018-02-14T20:14:11.029Z,2.96
2018-02-14T20:16:39.646Z,3.14
2018-02-14T20:19:08.113Z,3.04
2018-02-14T20:21:36.497Z,3.46
2018-02-14T20:24:04.975Z,2.33
2018-02-14T20:26:33.377Z,2.72
2018-02-14T20:29:01.761Z,3.28
2018-02-14T20:31:30.526Z,3.41
2018-02-14T20:33:58.924Z,2.67
2018-02-14T20:36:27.326Z,2.54
2018-02-14T20:38:55.737Z,2.70
2018-02-14T20:41:24.241Z,2.52
2018-02-14T20:43:52.695Z,2.74
2018-02-14T20:46:21.170Z,2.26
2018-02-14T20:48:49.595Z,2.07
2018-02-14T20:51:18.159Z,2.14
2018-02-14T20:53:46.529Z,2.77
2018-02-14T20:56:15.077Z,2.63
2018-02-14T20:58:43.451Z,2.43
2018-02-14T21:01:11.873Z,2.15
2018-02-14T21:03:40.283Z,2.16
2018-02-14T21:06:08.758Z,2.30
2018-02-14T21:08:37.184Z,2.01
2018-02-14T21:11:05.571Z,2.11
2018-02-14T21:13:34.050Z,2.06
2018-02-14T21:16:02.470Z,2.13
2018-02-14T21:18:30.878Z,2.00
2018-02-14T21:20:59.262Z,2.72
2018-02-14T21:23:27.699Z,2.49
2018-02-14T21:25:56.162Z,1.97
2018-02-14T21:28:24.582Z,2.24
2018-02-14T21:30:53.073Z,2.23
2018-02-14T21:33:21.470Z,2.46
2018-02-14T21:35:49.889Z,2.50
2018-02-14T21:38:18.368Z,2.17
2018-02-14T21:40:46.905Z,2.16
2018-02-14T21:43:15.315Z,2.33
2018-02-14T21:45:43.740Z,2.13
2018-02-14T21:48:12.132Z,1.99
2018-02-14T21:50:40.575Z,1.76
2018-02-14T21:53:09.052Z,2.26
2018-02-14T21:55:37.467Z,2.10
2018-02-14T21:58:05.916Z,2.93
2018-02-14T22:00:34.294Z,2.09
2018-02-14T22:03:02.783Z,1.89
2018-02-14T22:05:31.195Z,2.15
2018-02-14T22:07:59.594Z,2.19
2018-02-14T22:10:27.965Z,2.54
2018-02-14T22:12:56.383Z,2.04
2018-02-14T22:15:24.815Z,1.95
2018-02-14T22:17:53.229Z,2.17
2018-02-14T22:20:21.697Z,2.48
2018-02-14T22:22:50.192Z,2.22
2018-02-14T22:25:18.926Z,2.45
2018-02-14T22:27:47.414Z,2.87
2018-02-14T22:30:16.815Z,2.28
2018-02-14T22:32:45.278Z,2.32
2018-02-14T22:35:13.700Z,2.43
2018-02-14T22:37:42.095Z,1.93
2018-02-14T22:40:10.499Z,2.43
2018-02-14T22:42:38.868Z,2.05
2018-02-14T22:45:07.285Z,2.38
2018-02-14T22:47:35.667Z,2.20
2018-02-14T22:50:04.113Z,2.69
2018-02-14T22:52:32.480Z,2.33
2018-02-14T22:55:00.844Z,2.12
2018-02-14T22:57:29.309Z,1.82
2018-02-14T22:59:57.678Z,1.92
2018-02-14T23:02:26.050Z,2.19
2018-02-14T23:04:54.451Z,2.13
2018-02-14T23:07:22.864Z,2.50
2018-02-14T23:09:51.427Z,2.24
2018-02-14T23:12:19.839Z,2.25
2018-02-14T23:14:48.315Z,2.85
2018-02-14T23:17:16.678Z,2.54
2018-02-14T23:19:45.053Z,3.34
2018-02-14T23:22:13.507Z,3.37
2018-02-14T23:24:42.105Z,3.09
2018-02-14T23:27:10.783Z,3.32
2018-02-14T23:29:39.445Z,3.60
2018-02-14T23:32:07.935Z,3.62
2018-02-14T23:34:36.378Z,3.42
2018-02-14T23:37:04.761Z,3.78
2018-02-14T23:39:33.159Z,3.36
2018-02-14T23:42:01.541Z,3.21
2018-02-14T23:44:30.011Z,2.50
2018-02-14T23:46:58.391Z,2.60
2018-02-14T23:49:26.762Z,2.93
2018-02-14T23:51:55.135Z,2.62
2018-02-14T23:54:23.516Z,3.82
2018-02-14T23:56:51.987Z,3.67
2018-02-14T23:59:20.393Z,2.73
